createdAt,value
2023-01-17T00:00:09.062Z,32.20
2023-01-17T00:02:54.725Z,22.75
2023-01-17T00:05:59.245Z,33.13
2023-01-17T00:09:03.527Z,31.85
2023-01-17T00:11:49.141Z,35.72
2023-01-17T00:14:34.709Z,20.95
2023-01-17T00:17:20.204Z,25.70
2023-01-17T00:20:24.815Z,27.20
2023-01-17T00:23:44.681Z,29.98
2023-01-17T00:26:31.974Z,23.73
2023-01-17T00:29:17.522Z,26.20
2023-01-17T00:32:02.790Z,26.30
2023-01-17T00:34:48.002Z,29.38
2023-01-17T00:37:33.444Z,30.05
2023-01-17T00:40:18.703Z,27.00
2023-01-17T00:43:23.798Z,26.08
2023-01-17T00:46:27.944Z,32.50
2023-01-17T00:49:31.902Z,25.98
2023-01-17T00:52:35.853Z,27.13
2023-01-17T00:55:39.903Z,23.10
2023-01-17T00:58:43.881Z,27.67
2023-01-17T01:01:48.142Z,21.35
2023-01-17T01:04:52.201Z,26.88
2023-01-17T01:07:56.288Z,39.75
2023-01-17T01:11:01.327Z,21.90
2023-01-17T01:14:05.687Z,25.60
2023-01-17T01:17:09.879Z,23.20
2023-01-17T01:20:13.895Z,21.50
2023-01-17T01:23:22.895Z,23.05
2023-01-17T01:26:26.880Z,35.25
2023-01-17T01:29:31.119Z,25.40
2023-01-17T01:32:35.056Z,24.88
2023-01-17T01:35:22.016Z,25.30
2023-01-17T01:38:07.656Z,16.95
2023-01-17T01:40:55.751Z,21.30
2023-01-17T01:43:44.424Z,27.45
2023-01-17T01:46:29.700Z,23.23
2023-01-17T01:49:21.986Z,24.17
2023-01-17T01:52:09.018Z,14.43
2023-01-17T01:55:03.345Z,22.73
2023-01-17T01:57:52.802Z,22.08
2023-01-17T02:00:41.072Z,27.77
2023-01-17T02:03:31.252Z,29.13
2023-01-17T02:06:19.368Z,25.80
2023-01-17T02:09:08.664Z,29.42
2023-01-17T02:11:54.734Z,26.05
2023-01-17T02:14:40.035Z,22.98
2023-01-17T02:17:30.065Z,25.70
2023-01-17T02:20:27.449Z,20.38
2023-01-17T02:23:22.216Z,24.35
2023-01-17T02:26:26.153Z,28.23
2023-01-17T02:29:30.358Z,19.73
2023-01-17T02:33:02.025Z,18.40
2023-01-17T02:36:04.626Z,18.30
2023-01-17T02:39:17.868Z,19.98
2023-01-17T02:42:09.886Z,21.42
2023-01-17T02:44:55.503Z,18.55
2023-01-17T02:47:40.921Z,27.48
2023-01-17T02:50:37.505Z,27.35
2023-01-17T02:53:38.386Z,16.63
2023-01-17T02:56:46.793Z,17.48
2023-01-17T03:00:01.742Z,28.45
2023-01-17T03:02:56.274Z,15.15
2023-01-17T03:05:49.764Z,15.75
2023-01-17T03:08:35.244Z,15.45
2023-01-17T03:11:20.953Z,20.50
2023-01-17T03:14:06.582Z,16.15
2023-01-17T03:16:53.079Z,11.88
2023-01-17T03:19:38.678Z,13.52
2023-01-17T03:22:24.218Z,12.68
2023-01-17T03:25:10.097Z,15.23
2023-01-17T03:27:55.752Z,19.83
2023-01-17T03:30:41.129Z,20.60
2023-01-17T03:33:26.402Z,16.73
2023-01-17T03:36:12.307Z,20.88
2023-01-17T03:38:57.781Z,25.40
2023-01-17T03:41:43.028Z,20.42
2023-01-17T03:44:28.561Z,19.50
2023-01-17T03:47:13.679Z,16.17
2023-01-17T03:49:59.162Z,20.08
2023-01-17T03:52:44.342Z,27.95
2023-01-17T03:55:29.902Z,19.67
2023-01-17T03:58:16.380Z,17.55
2023-01-17T04:01:02.125Z,13.32
2023-01-17T04:03:47.952Z,14.00
2023-01-17T04:06:33.278Z,16.05
2023-01-17T04:09:18.599Z,15.90
2023-01-17T04:12:04.104Z,15.70
2023-01-17T04:14:49.559Z,17.67
2023-01-17T04:17:35.593Z,19.10
2023-01-17T04:20:36.677Z,20.60
2023-01-17T04:23:22.269Z,21.20
2023-01-17T04:26:08.859Z,17.20
2023-01-17T04:28:54.561Z,16.25
2023-01-17T04:31:39.882Z,17.35
2023-01-17T04:34:25.672Z,20.42
2023-01-17T04:37:10.854Z,21.27
2023-01-17T04:39:56.512Z,19.85
2023-01-17T04:42:44.307Z,23.25
2023-01-17T04:45:29.775Z,20.23
2023-01-17T04:48:15.203Z,20.33
2023-01-17T04:51:02.197Z,20.42
2023-01-17T04:53:47.843Z,18.23
2023-01-17T04:56:33.057Z,22.73
2023-01-17T04:59:18.362Z,18.77
2023-01-17T05:02:03.904Z,16.17
2023-01-17T05:04:49.058Z,15.38
2023-01-17T05:07:35.820Z,12.05
2023-01-17T05:10:21.896Z,14.43
2023-01-17T05:13:07.328Z,14.70
2023-01-17T05:15:53.410Z,19.23
2023-01-17T05:18:39.180Z,13.77
2023-01-17T05:21:25.069Z,16.92
2023-01-17T05:24:10.930Z,16.73
2023-01-17T05:26:56.090Z,11.30
2023-01-17T05:29:41.764Z,13.02
2023-01-17T05:32:27.367Z,22.40
2023-01-17T05:35:12.793Z,11.50
2023-01-17T05:37:59.234Z,12.20
2023-01-17T05:40:44.515Z,19.10
2023-01-17T05:43:29.757Z,15.52
2023-01-17T05:46:16.316Z,19.33
2023-01-17T05:49:01.821Z,20.33
2023-01-17T05:51:47.203Z,12.88
2023-01-17T05:54:32.490Z,12.68
2023-01-17T05:57:17.974Z,15.40
2023-01-17T06:00:03.948Z,17.25
2023-01-17T06:02:50.541Z,19.42
2023-01-17T06:05:36.055Z,12.15
2023-01-17T06:08:23.542Z,17.23
2023-01-17T06:11:09.063Z,16.00
2023-01-17T06:13:54.574Z,13.05
2023-01-17T06:16:40.111Z,11.48
2023-01-17T06:19:25.827Z,12.65
2023-01-17T06:22:11.093Z,19.33
2023-01-17T06:24:56.447Z,13.57
2023-01-17T06:27:41.844Z,13.13
2023-01-17T06:30:27.359Z,14.68
2023-01-17T06:33:13.463Z,14.13
2023-01-17T06:35:59.054Z,16.02
2023-01-17T06:38:44.324Z,11.65
2023-01-17T06:41:29.654Z,16.80
2023-01-17T06:44:15.091Z,15.65
2023-01-17T06:47:00.559Z,18.27
2023-01-17T06:49:45.900Z,15.85
2023-01-17T06:52:31.265Z,14.70
2023-01-17T06:55:16.788Z,10.95
2023-01-17T06:58:05.525Z,12.95
2023-01-17T07:00:51.175Z,11.45
2023-01-17T07:03:37.931Z,8.38
2023-01-17T07:06:25.109Z,16.13
2023-01-17T07:09:10.824Z,22.85
2023-01-17T07:11:59.758Z,15.82
2023-01-17T07:14:45.445Z,14.70
2023-01-17T07:17:31.082Z,13.60
2023-01-17T07:20:16.765Z,18.02
2023-01-17T07:23:02.279Z,18.42
2023-01-17T07:26:14.174Z,17.25
2023-01-17T07:28:59.787Z,12.80
2023-01-17T07:31:45.344Z,13.00
2023-01-17T07:34:30.834Z,17.00
2023-01-17T07:37:16.364Z,13.13
2023-01-17T07:40:02.618Z,12.82
2023-01-17T07:42:48.423Z,15.90
2023-01-17T07:45:33.692Z,9.90
2023-01-17T07:48:20.755Z,9.10
2023-01-17T07:51:06.365Z,10.48
2023-01-17T07:53:51.800Z,11.00
2023-01-17T07:56:37.722Z,11.73
2023-01-17T07:59:23.070Z,14.93
2023-01-17T08:02:17.805Z,15.05
2023-01-17T08:05:03.129Z,13.10
2023-01-17T08:07:48.520Z,14.82
2023-01-17T08:10:34.024Z,14.30
2023-01-17T08:13:20.151Z,7.97
2023-01-17T08:16:06.378Z,17.05
2023-01-17T08:18:52.095Z,13.75
2023-01-17T08:21:37.770Z,21.45
2023-01-17T08:24:23.231Z,10.23
2023-01-17T08:27:09.248Z,12.60
2023-01-17T08:29:55.013Z,15.40
2023-01-17T08:32:40.984Z,11.23
2023-01-17T08:35:27.908Z,12.85
2023-01-17T08:38:13.254Z,10.20
2023-01-17T08:41:01.654Z,11.63
2023-01-17T08:43:48.334Z,15.02
2023-01-17T08:46:33.920Z,12.68
2023-01-17T08:49:19.280Z,14.90
2023-01-17T08:52:05.507Z,16.77
2023-01-17T08:54:53.293Z,13.60
2023-01-17T08:57:38.603Z,11.55
2023-01-17T09:00:24.150Z,21.38
2023-01-17T09:03:14.047Z,13.45
2023-01-17T09:06:03.811Z,17.42
2023-01-17T09:08:52.008Z,14.60
2023-01-17T09:11:37.782Z,20.08
2023-01-17T09:14:23.134Z,17.83
2023-01-17T09:17:08.365Z,9.60
2023-01-17T09:19:53.719Z,13.15
2023-01-17T09:22:39.205Z,18.35
2023-01-17T09:25:24.571Z,14.23
2023-01-17T09:28:11.095Z,16.88
2023-01-17T09:30:56.709Z,13.25
2023-01-17T09:33:43.311Z,13.38
2023-01-17T09:36:29.308Z,15.98
2023-01-17T09:39:15.425Z,17.13
2023-01-17T09:42:06.785Z,25.40
2023-01-17T09:44:52.777Z,21.75
2023-01-17T09:47:43.659Z,25.80
2023-01-17T09:50:47.217Z,11.90
2023-01-17T09:53:36.105Z,15.45
2023-01-17T09:56:31.349Z,23.27
2023-01-17T09:59:38.920Z,20.35
2023-01-17T10:03:03.599Z,19.77
2023-01-17T10:06:07.915Z,15.48
2023-01-17T10:08:59.885Z,18.00
2023-01-17T10:12:07.290Z,20.50
2023-01-17T10:15:10.887Z,13.10
2023-01-17T10:18:05.348Z,17.15
2023-01-17T10:21:13.310Z,18.85
2023-01-17T10:24:23.050Z,14.60
2023-01-17T10:27:28.337Z,11.15
2023-01-17T10:30:25.367Z,11.88
2023-01-17T10:33:51.768Z,11.80
2023-01-17T10:36:41.508Z,12.63
2023-01-17T10:39:31.004Z,15.48
2023-01-17T10:42:42.968Z,8.20
2023-01-17T10:45:30.356Z,12.70
2023-01-17T10:48:32.669Z,15.70
2023-01-17T10:51:50.826Z,16.67
2023-01-17T10:54:50.024Z,13.43
2023-01-17T10:57:47.497Z,15.10
2023-01-17T11:00:51.197Z,17.77
2023-01-17T11:03:36.570Z,21.13
2023-01-17T11:06:25.988Z,14.48
2023-01-17T11:09:12.029Z,10.32
2023-01-17T11:11:57.420Z,12.48
2023-01-17T11:15:01.343Z,18.50
2023-01-17T11:17:53.319Z,11.82
2023-01-17T11:20:40.185Z,14.05
2023-01-17T11:23:31.817Z,9.77
2023-01-17T11:26:27.681Z,16.02
2023-01-17T11:29:29.673Z,14.48
2023-01-17T11:32:33.260Z,8.20
2023-01-17T11:35:33.167Z,8.23
2023-01-17T11:38:22.370Z,12.70
2023-01-17T11:41:21.703Z,11.43
2023-01-17T11:44:26.082Z,18.55
2023-01-17T11:47:19.299Z,17.40
2023-01-17T11:50:24.027Z,21.00
2023-01-17T11:53:15.775Z,8.70
2023-01-17T11:56:11.470Z,12.68
2023-01-17T11:59:15.613Z,8.20
2023-01-17T12:02:31.971Z,12.07
2023-01-17T12:05:48.346Z,8.10
2023-01-17T12:09:12.686Z,12.20
2023-01-17T12:12:34.944Z,9.15
2023-01-17T12:18:54.022Z,14.52
2023-01-17T12:21:48.818Z,10.23
2023-01-17T12:24:58.973Z,10.20
2023-01-17T12:27:53.342Z,15.65
2023-01-17T12:31:08.142Z,9.13
2023-01-17T12:34:14.964Z,8.77
2023-01-17T12:37:18.270Z,14.50
2023-01-17T12:40:16.619Z,13.20
2023-01-17T12:43:25.660Z,15.52
2023-01-17T12:46:27.260Z,11.23
2023-01-17T12:49:45.936Z,8.65
2023-01-17T12:52:59.943Z,8.35
2023-01-17T12:55:59.596Z,10.77
2023-01-17T12:58:49.670Z,6.95
2023-01-17T13:01:43.337Z,10.38
2023-01-17T13:04:57.463Z,10.63
2023-01-17T13:08:07.795Z,14.07
2023-01-17T13:11:04.073Z,8.82
2023-01-17T13:13:51.581Z,14.95
2023-01-17T13:16:46.449Z,10.43
2023-01-17T13:19:55.636Z,10.05
2023-01-17T13:22:43.314Z,9.70
2023-01-17T13:25:44.740Z,11.80
2023-01-17T13:28:44.800Z,9.05
2023-01-17T13:31:57.815Z,6.85
2023-01-17T13:35:01.765Z,7.88
2023-01-17T13:38:08.571Z,11.32
2023-01-17T13:41:35.736Z,7.45
2023-01-17T13:44:27.314Z,5.65
2023-01-17T13:47:18.975Z,4.18
2023-01-17T13:50:06.835Z,6.55
2023-01-17T13:52:58.041Z,8.65
2023-01-17T13:55:53.456Z,7.30
2023-01-17T13:58:45.403Z,5.38
2023-01-17T14:01:38.922Z,4.65
2023-01-17T14:04:25.118Z,7.45
2023-01-17T14:07:25.690Z,4.57
2023-01-17T14:10:32.620Z,8.23
2023-01-17T14:13:37.769Z,4.60
2023-01-17T14:16:27.690Z,7.40
2023-01-17T14:19:26.741Z,4.95
2023-01-17T14:22:21.416Z,3.03
2023-01-17T14:25:15.037Z,2.58
2023-01-17T14:28:04.384Z,4.63
2023-01-17T14:30:56.005Z,3.80
2023-01-17T14:33:42.021Z,2.72
2023-01-17T14:36:32.599Z,2.83
2023-01-17T14:39:22.589Z,6.05
2023-01-17T14:42:15.464Z,2.50
2023-01-17T14:45:06.665Z,2.55
2023-01-17T14:47:52.912Z,5.45
2023-01-17T14:50:40.888Z,6.50
2023-01-17T14:53:31.593Z,2.53
2023-01-17T14:56:17.274Z,5.57
2023-01-17T14:59:17.076Z,4.60
2023-01-17T15:02:08.721Z,5.07
2023-01-17T15:04:55.301Z,3.05
2023-01-17T15:07:43.136Z,5.13
2023-01-17T15:10:32.756Z,4.07
2023-01-17T15:13:29.770Z,1.88
2023-01-17T15:16:30.104Z,2.35
2023-01-17T15:19:15.696Z,4.70
2023-01-17T15:22:01.081Z,6.15
2023-01-17T15:24:47.908Z,4.65
2023-01-17T15:27:33.688Z,2.92
2023-01-17T15:30:19.038Z,1.75
2023-01-17T15:33:05.004Z,5.28
2023-01-17T15:36:21.212Z,2.22
2023-01-17T15:39:18.008Z,1.38
2023-01-17T15:42:07.893Z,2.80
2023-01-17T15:45:00.908Z,4.18
2023-01-17T15:47:47.011Z,6.85
2023-01-17T15:50:36.534Z,4.28
2023-01-17T15:53:36.645Z,8.60
2023-01-17T15:56:33.550Z,10.63
2023-01-17T15:59:42.378Z,12.13
2023-01-17T16:02:33.225Z,9.30
2023-01-17T16:05:22.619Z,11.60
2023-01-17T16:08:08.308Z,7.43
2023-01-17T16:10:56.790Z,6.75
2023-01-17T16:13:43.534Z,2.70
2023-01-17T16:16:29.500Z,5.30
2023-01-17T16:19:15.520Z,7.80
2023-01-17T16:22:05.089Z,4.65
2023-01-17T16:24:50.838Z,11.75
2023-01-17T16:27:36.534Z,9.40
2023-01-17T16:30:22.429Z,7.20
2023-01-17T16:33:11.836Z,11.95
2023-01-17T16:35:56.959Z,10.43
2023-01-17T16:38:45.047Z,10.15
2023-01-17T16:41:30.524Z,8.75
2023-01-17T16:44:16.794Z,8.38
2023-01-17T16:47:02.201Z,7.13
2023-01-17T16:49:47.670Z,6.85
2023-01-17T16:52:33.263Z,8.55
2023-01-17T16:55:22.182Z,11.50
2023-01-17T16:58:07.899Z,5.80
2023-01-17T17:00:55.507Z,8.88
2023-01-17T17:03:41.914Z,9.60
2023-01-17T17:06:27.599Z,11.98
2023-01-17T17:09:12.856Z,5.55
2023-01-17T17:11:58.215Z,13.13
2023-01-17T17:14:43.550Z,8.02
2023-01-17T17:17:29.214Z,10.70
2023-01-17T17:20:15.693Z,13.60
2023-01-17T17:23:00.916Z,8.68
2023-01-17T17:25:54.695Z,13.93
2023-01-17T17:28:40.426Z,12.23
2023-01-17T17:31:25.822Z,14.30
2023-01-17T17:34:13.077Z,11.48
2023-01-17T17:36:58.426Z,11.13
2023-01-17T17:39:44.680Z,15.48
2023-01-17T17:42:30.172Z,10.55
2023-01-17T17:45:15.737Z,12.07
2023-01-17T17:48:01.215Z,8.93
2023-01-17T17:50:58.299Z,20.48
2023-01-17T17:53:45.291Z,11.43
2023-01-17T17:56:32.641Z,13.95
2023-01-17T17:59:19.586Z,13.70
2023-01-17T18:02:06.829Z,16.45
2023-01-17T18:04:52.591Z,10.70
2023-01-17T18:07:37.812Z,11.85
2023-01-17T18:10:23.257Z,13.07
2023-01-17T18:13:08.693Z,15.05
2023-01-17T18:16:08.905Z,11.45
2023-01-17T18:18:57.150Z,10.90
2023-01-17T18:21:43.622Z,14.82
2023-01-17T18:24:29.317Z,10.40
2023-01-17T18:27:15.379Z,8.88
2023-01-17T18:30:00.680Z,14.00
2023-01-17T18:32:49.935Z,13.10
2023-01-17T18:35:35.642Z,11.85
2023-01-17T18:38:20.987Z,11.50
2023-01-17T18:41:12.643Z,10.13
2023-01-17T18:43:59.085Z,8.98
2023-01-17T18:46:45.250Z,11.95
2023-01-17T18:49:32.701Z,12.85
2023-01-17T18:52:19.569Z,13.77
2023-01-17T18:55:05.794Z,8.73
2023-01-17T18:57:51.347Z,16.08
2023-01-17T19:00:36.856Z,12.75
2023-01-17T19:03:28.967Z,14.60
2023-01-17T19:06:18.645Z,10.45
2023-01-17T19:09:05.621Z,8.30
2023-01-17T19:11:51.412Z,12.90
2023-01-17T19:14:37.312Z,13.45
2023-01-17T19:17:22.506Z,21.42
2023-01-17T19:20:09.077Z,23.48
2023-01-17T19:22:54.445Z,15.50
2023-01-17T19:25:39.734Z,19.75
2023-01-17T19:28:25.222Z,14.15
2023-01-17T19:31:16.121Z,11.13
2023-01-17T19:34:01.328Z,10.18
2023-01-17T19:36:47.351Z,12.75
2023-01-17T19:39:33.327Z,6.30
2023-01-17T19:42:19.219Z,14.20
2023-01-17T19:45:05.029Z,14.98
2023-01-17T19:47:50.524Z,14.10
2023-01-17T19:50:35.902Z,12.75
2023-01-17T19:53:24.560Z,10.48
2023-01-17T19:56:18.877Z,10.10
2023-01-17T19:59:04.286Z,9.27
2023-01-17T20:01:50.041Z,13.90
2023-01-17T20:04:35.794Z,11.05
2023-01-17T20:07:21.166Z,10.80
2023-01-17T20:10:06.905Z,9.23
2023-01-17T20:12:52.654Z,12.60
2023-01-17T20:15:38.018Z,13.57
2023-01-17T20:18:23.350Z,13.32
2023-01-17T20:21:21.075Z,13.85
2023-01-17T20:24:09.962Z,15.27
2023-01-17T20:26:58.086Z,14.45
2023-01-17T20:29:43.984Z,14.10
2023-01-17T20:32:29.592Z,8.68
2023-01-17T20:35:16.091Z,15.00
2023-01-17T20:38:01.702Z,13.95
2023-01-17T20:40:54.049Z,7.70
2023-01-17T20:43:40.240Z,9.05
2023-01-17T20:46:29.018Z,9.63
2023-01-17T20:49:18.878Z,5.38
2023-01-17T20:52:06.199Z,13.18
2023-01-17T20:54:51.946Z,14.38
2023-01-17T20:57:37.565Z,16.77
2023-01-17T21:00:23.095Z,9.05
2023-01-17T21:03:08.582Z,6.15
2023-01-17T21:05:59.560Z,8.77
2023-01-17T21:08:46.305Z,9.15
2023-01-17T21:11:34.111Z,7.72
2023-01-17T21:14:21.833Z,8.75
2023-01-17T21:17:07.772Z,12.05
2023-01-17T21:19:53.425Z,10.00
2023-01-17T21:22:38.773Z,8.63
2023-01-17T21:25:24.052Z,10.43
2023-01-17T21:28:09.438Z,16.98
2023-01-17T21:30:55.991Z,15.95
2023-01-17T21:33:41.434Z,12.50
2023-01-17T21:36:33.183Z,14.30
2023-01-17T21:39:19.185Z,5.38
2023-01-17T21:42:04.898Z,9.15
2023-01-17T21:44:50.378Z,8.13
2023-01-17T21:47:35.772Z,7.85
2023-01-17T21:50:32.723Z,8.00
2023-01-17T21:53:18.745Z,6.80
2023-01-17T21:56:25.199Z,3.67
2023-01-17T21:59:10.910Z,12.88
2023-01-17T22:01:56.336Z,6.70
2023-01-17T22:04:42.080Z,5.13
2023-01-17T22:07:29.140Z,9.73
2023-01-17T22:10:14.489Z,6.15
2023-01-17T22:13:00.024Z,7.70
2023-01-17T22:15:46.315Z,5.38
2023-01-17T22:18:34.140Z,4.57
2023-01-17T22:21:22.062Z,9.50
2023-01-17T22:24:07.815Z,9.70
2023-01-17T22:26:53.167Z,9.57
2023-01-17T22:29:38.773Z,8.52
2023-01-17T22:32:24.171Z,4.55
2023-01-17T22:35:09.895Z,8.55
2023-01-17T22:37:55.355Z,6.43
2023-01-17T22:40:40.950Z,4.00
2023-01-17T22:43:27.340Z,6.00
2023-01-17T22:46:15.130Z,6.50
2023-01-17T22:49:00.709Z,4.55
2023-01-17T22:51:46.286Z,3.10
2023-01-17T22:54:31.744Z,3.88
2023-01-17T22:57:17.888Z,3.13
2023-01-17T23:00:14.576Z,5.97
2023-01-17T23:03:00.607Z,8.82
2023-01-17T23:05:46.868Z,6.55
2023-01-17T23:08:32.557Z,8.15
2023-01-17T23:11:49.941Z,6.82
2023-01-17T23:14:55.096Z,7.72
2023-01-17T23:17:59.055Z,10.30
2023-01-17T23:20:44.761Z,5.70
2023-01-17T23:23:31.207Z,4.45
2023-01-17T23:26:17.013Z,5.80
2023-01-17T23:29:02.583Z,4.88
2023-01-17T23:31:47.951Z,7.40
2023-01-17T23:34:33.381Z,6.20
2023-01-17T23:37:18.736Z,4.78
2023-01-17T23:40:04.706Z,4.97
2023-01-17T23:43:08.721Z,4.57
2023-01-17T23:45:54.882Z,2.47
2023-01-17T23:48:40.130Z,5.65
2023-01-17T23:51:25.385Z,3.15
2023-01-17T23:54:10.831Z,4.35
2023-01-17T23:56:56.241Z,1.60
2023-01-17T23:59:41.460Z,1.60
